Time;durP1;ratioP1;P1;durP2;ratioP2;P2;SDS_P1;SDS_P2;PMS_P1;PMS_P2;Temp;Humidity;BMP_temperature;BMP_pressure;BME280_temperature;BME280_humidity;BME280_pressure;Samples;Min_cycle;Max_cycle;Signal;HPM_P1;HPM_P2
2024/01/01 00:03:54;;;;;;;10.80;10.50;;;5.10;99.90;;;;;;5083337;28;20233;-89
2024/01/01 00:10:10;;;;;;;10.70;10.40;;;5.10;99.90;;;;;;5083027;28;20219;-88
2024/01/01 00:16:43;;;;;;;;;;;;;;;;;;;;;
2024/01/01 00:22:48;;;;;;;11.10;10.70;;;4.90;99.90;;;;;;5086899;28;20244;-89
2024/01/01 00:31:42;;;;;;;11.30;10.90;;;4.70;99.90;;;;;;5084481;28;20218;-88
2024/01/01 00:52:00;;;;;;;11.20;10.80;;;4.60;99.90;;;;;;5076474;28;20280;-89
2024/01/01 00:54:33;;;;;;;11.27;10.87;;;4.60;99.90;;;;;;5084667;28;20236;-88
2024/01/01 00:57:05;;;;;;;11.20;10.80;;;4.60;99.90;;;;;;5085521;28;20261;-89
2024/01/01 00:59:37;;;;;;;11.27;10.87;;;4.60;99.90;;;;;;5084980;28;20249;-89
2024/01/01 01:02:05;;;;;;;11.10;10.70;;;4.60;99.90;;;;;;5085821;28;20249;-88
2024/01/01 01:04:37;;;;;;;11.20;10.80;;;4.60;99.90;;;;;;5083587;28;20222;-89
2024/01/01 01:07:08;;;;;;;11.37;10.97;;;4.50;99.90;;;;;;5084386;28;20252;-89
2024/01/01 01:09:47;;;;;;;11.20;10.80;;;4.60;99.90;;;;;;5083729;28;20237;-90
2024/01/01 01:12:26;;;;;;;11.40;11.00;;;4.60;99.90;;;;;;5084391;28;20494;-89
2024/01/01 01:15:02;;;;;;;11.10;10.70;;;4.50;99.90;;;;;;5086027;28;20365;-90
2024/01/01 01:17:44;;;;;;;11.30;10.90;;;4.60;99.90;;;;;;5084452;28;20232;-89
2024/01/01 01:20:17;;;;;;;11.40;11.00;;;4.50;99.90;;;;;;5085094;28;20266;-91
2024/01/01 01:23:30;;;;;;;;;;;;;;;;;;;;;
2024/01/01 01:26:38;;;;;;;;;;;;;;;;;;;;;
2024/01/01 01:29:12;;;;;;;11.40;11.00;;;4.50;99.90;;;;;;5084280;28;20209;-90
2024/01/01 01:32:06;;;;;;;11.70;11.30;;;4.50;99.90;;;;;;5084793;28;20488;-90
2024/01/01 01:35:00;;;;;;;11.27;10.87;;;4.50;99.90;;;;;;5086577;28;20230;-88
2024/01/01 01:37:31;;;;;;;11.13;10.73;;;4.50;99.90;;;;;;5099087;28;20220;-90
2024/01/01 01:40:01;;;;;;;11.10;10.70;;;4.60;99.90;;;;;;5085455;28;20234;-88
2024/01/01 01:45:34;;;;;;;11.30;10.90;;;4.60;99.90;;;;;;5088332;27;20222;-87
2024/01/01 01:48:04;;;;;;;11.10;10.70;;;4.70;99.90;;;;;;5099658;27;20225;-89
2024/01/01 01:50:32;;;;;;;11.23;10.83;;;4.70;99.90;;;;;;5087967;28;20225;-88
2024/01/01 01:53:23;;;;;;;11.30;10.90;;;4.70;99.90;;;;;;5092929;27;20256;-86
2024/01/01 01:56:03;;;;;;;11.03;10.67;;;4.80;99.90;;;;;;5100621;27;20253;-85
2024/01/01 01:58:34;;;;;;;11.03;10.67;;;4.80;99.90;;;;;;5096781;27;20259;-88
2024/01/01 02:01:03;;;;;;;11.10;10.70;;;4.80;99.90;;;;;;5088274;28;20222;-88
2024/01/01 02:03:33;;;;;;;11.27;10.87;;;4.80;99.90;;;;;;5088170;28;20226;-87
2024/01/01 02:06:07;;;;;;;11.07;10.67;;;4.80;99.90;;;;;;5087788;28;20229;-87
2024/01/01 02:08:39;;;;;;;10.87;10.57;;;4.80;99.90;;;;;;5087780;28;20285;-87
2024/01/01 02:11:07;;;;;;;11.10;10.70;;;4.80;99.90;;;;;;5086559;28;20269;-87
2024/01/01 02:13:39;;;;;;;11.20;10.80;;;4.80;99.90;;;;;;5085836;28;20266;-87
2024/01/01 02:16:11;;;;;;;11.10;10.70;;;4.80;99.90;;;;;;5086354;28;20237;-87
2024/01/01 02:18:42;;;;;;;11.13;10.73;;;4.80;99.90;;;;;;5085127;28;20222;-87
2024/01/01 02:21:10;;;;;;;11.10;10.70;;;4.90;99.90;;;;;;5084457;28;20234;-87
2024/01/01 02:23:40;;;;;;;11.17;10.77;;;4.90;99.90;;;;;;5085237;28;20252;-87
2024/01/01 02:26:12;;;;;;;11.37;10.97;;;4.90;99.90;;;;;;5085486;28;20226;-87
2024/01/01 02:28:43;;;;;;;11.40;11.00;;;4.90;99.90;;;;;;5086443;28;20306;-87
2024/01/01 02:31:11;;;;;;;11.23;10.83;;;4.90;99.90;;;;;;5087324;28;20214;-87
2024/01/01 02:33:39;;;;;;;11.07;10.67;;;4.90;99.90;;;;;;5085250;28;20226;-87
2024/01/01 02:36:08;;;;;;;11.17;10.77;;;4.80;99.90;;;;;;5086125;28;20244;-87
2024/01/01 02:38:39;;;;;;;10.83;10.53;;;4.80;99.90;;;;;;5085373;28;20222;-87
2024/01/01 02:41:10;;;;;;;11.17;10.77;;;4.90;99.90;;;;;;5075237;28;20218;-86
2024/01/01 02:43:40;;;;;;;11.10;10.70;;;4.90;99.90;;;;;;5089585;28;20294;-87
2024/01/01 02:46:08;;;;;;;11.10;10.70;;;4.80;99.90;;;;;;5085470;28;20257;-87
2024/01/01 02:48:39;;;;;;;11.10;10.70;;;4.80;99.90;;;;;;5085626;28;20321;-87
2024/01/01 02:51:09;;;;;;;10.73;10.43;;;4.80;99.90;;;;;;5085644;28;20222;-87
2024/01/01 02:53:37;;;;;;;11.10;10.70;;;4.80;99.90;;;;;;5085794;28;20262;-87
2024/01/01 02:56:16;;;;;;;11.17;10.77;;;4.70;99.90;;;;;;5084647;28;20240;-87
2024/01/01 02:58:51;;;;;;;10.90;10.60;;;4.70;99.90;;;;;;5084628;28;20231;-86
2024/01/01 03:01:19;;;;;;;10.87;10.53;;;4.70;99.90;;;;;;5085518;28;20221;-87
2024/01/01 03:03:56;;;;;;;11.17;10.77;;;4.70;99.90;;;;;;5084588;28;20234;-87
2024/01/01 03:06:23;;;;;;;10.93;10.63;;;4.70;99.90;;;;;;5085201;28;20328;-86
2024/01/01 03:08:53;;;;;;;10.83;10.53;;;4.80;99.90;;;;;;5084288;28;20319;-87
2024/01/01 03:11:27;;;;;;;11.10;10.70;;;4.80;99.90;;;;;;5086363;28;20227;-84
2024/01/01 03:14:00;;;;;;;11.23;10.83;;;4.70;99.90;;;;;;5099296;28;20210;-84
2024/01/01 03:16:28;;;;;;;11.10;10.70;;;4.70;99.90;;;;;;5085069;28;20236;-88
2024/01/01 03:18:56;;;;;;;11.00;10.70;;;4.70;99.90;;;;;;5083766;28;20577;-86
2024/01/01 03:21:25;;;;;;;11.23;10.83;;;4.70;99.90;;;;;;5084619;28;20262;-88
2024/01/01 03:23:57;;;;;;;11.20;10.80;;;4.60;99.90;;;;;;5085910;28;20238;-88
2024/01/01 03:26:27;;;;;;;11.30;10.90;;;4.60;99.90;;;;;;5098208;28;20226;-83
2024/01/01 03:28:55;;;;;;;10.80;10.50;;;4.60;99.90;;;;;;5099365;28;20218;-83
2024/01/01 03:31:23;;;;;;;10.90;10.60;;;4.60;99.90;;;;;;5099393;28;20207;-83
2024/01/01 03:33:55;;;;;;;11.30;10.90;;;4.50;99.90;;;;;;5100165;28;20233;-83
2024/01/01 03:36:22;;;;;;;11.23;10.83;;;4.50;99.90;;;;;;5099490;28;20219;-85
2024/01/01 03:38:52;;;;;;;11.07;10.70;;;4.50;99.90;;;;;;5088360;28;20298;-87
2024/01/01 03:41:24;;;;;;;11.30;10.90;;;4.50;99.90;;;;;;5087563;28;20231;-87
2024/01/01 03:44:02;;;;;;;11.17;10.77;;;4.50;99.90;;;;;;5088758;28;20226;-87
2024/01/01 03:46:30;;;;;;;11.10;10.70;;;4.50;99.90;;;;;;5087909;28;20230;-87
2024/01/01 03:49:00;;;;;;;11.20;10.80;;;4.50;99.90;;;;;;5087329;28;20244;-87
2024/01/01 03:51:27;;;;;;;11.00;10.70;;;4.60;99.90;;;;;;5087535;28;20290;-87
2024/01/01 03:53:57;;;;;;;10.80;10.50;;;4.60;99.90;;;;;;5087735;28;20230;-87
2024/01/01 03:56:27;;;;;;;11.10;10.70;;;4.60;99.90;;;;;;5087192;28;20242;-87
2024/01/01 03:58:57;;;;;;;10.80;10.50;;;4.60;99.90;;;;;;5090190;28;20223;-86
2024/01/01 04:01:26;;;;;;;11.20;10.80;;;4.70;99.90;;;;;;5088166;28;20222;-87
2024/01/01 04:04:00;;;;;;;10.90;10.60;;;4.60;99.90;;;;;;5088715;28;20304;-88
2024/01/01 04:06:36;;;;;;;10.80;10.50;;;4.60;99.90;;;;;;5088219;28;20260;-88
2024/01/01 04:09:06;;;;;;;10.63;10.33;;;4.70;99.90;;;;;;5086792;28;20238;-88
2024/01/01 04:11:39;;;;;;;10.70;10.40;;;4.70;99.90;;;;;;5086918;28;20284;-87
2024/01/01 04:14:30;;;;;;;10.80;10.50;;;4.70;99.90;;;;;;5088158;28;20236;-87
2024/01/01 04:16:58;;;;;;;10.87;10.57;;;4.70;99.90;;;;;;5087572;28;20301;-87
2024/01/01 04:19:31;;;;;;;10.70;10.40;;;4.70;99.90;;;;;;5087546;28;20234;-87
2024/01/01 04:22:00;;;;;;;11.07;10.70;;;4.70;99.90;;;;;;5087460;28;20210;-88
2024/01/01 04:24:39;;;;;;;;;;;;;;;;;;;;;
2024/01/01 04:27:09;;;;;;;10.73;10.43;;;4.70;99.90;;;;;;5088133;28;20230;-87
2024/01/01 04:29:42;;;;;;;10.83;10.53;;;4.70;99.90;;;;;;5087116;28;20240;-87
2024/01/01 04:32:14;;;;;;;10.83;10.53;;;4.70;99.90;;;;;;5086331;28;20313;-88
2024/01/01 04:34:44;;;;;;;10.90;10.60;;;4.70;99.90;;;;;;5087234;28;20307;-88
2024/01/01 04:37:12;;;;;;;11.20;10.80;;;4.70;99.90;;;;;;5085799;28;20253;-87
2024/01/01 04:39:40;;;;;;;11.20;10.80;;;4.80;99.90;;;;;;5086458;28;20222;-88
2024/01/01 04:42:08;;;;;;;10.80;10.50;;;4.80;99.90;;;;;;5091860;28;20221;-88
2024/01/01 04:44:37;;;;;;;10.93;10.57;;;4.80;99.90;;;;;;5091328;28;20238;-88
2024/01/01 04:47:05;;;;;;;11.13;10.73;;;4.80;99.90;;;;;;5087074;28;20237;-87
2024/01/01 04:49:33;;;;;;;10.87;10.57;;;4.80;99.90;;;;;;5086807;28;20235;-88
2024/01/01 04:52:02;;;;;;;11.10;10.70;;;4.80;99.90;;;;;;5087391;28;20214;-87
2024/01/01 04:54:31;;;;;;;11.10;10.70;;;4.80;99.90;;;;;;5087251;28;20229;-88
2024/01/01 04:56:58;;;;;;;11.10;10.70;;;4.90;99.90;;;;;;5086550;28;20230;-88
2024/01/01 04:59:29;;;;;;;10.97;10.60;;;4.80;99.90;;;;;;5086316;28;20245;-87
2024/01/01 05:01:58;;;;;;;10.80;10.50;;;4.80;99.90;;;;;;5086446;28;20230;-88
2024/01/01 05:04:26;;;;;;;11.17;10.77;;;4.80;99.90;;;;;;5086486;28;20238;-87
2024/01/01 05:06:56;;;;;;;11.07;10.67;;;4.80;99.90;;;;;;5086443;28;20248;-88
2024/01/01 05:09:27;;;;;;;11.13;10.73;;;4.80;99.90;;;;;;5089529;28;20233;-87
2024/01/01 05:11:59;;;;;;;11.30;10.90;;;4.80;99.90;;;;;;5101405;28;20230;-84
2024/01/01 05:14:26;;;;;;;11.40;11.00;;;4.90;99.90;;;;;;5101600;28;20266;-84
2024/01/01 05:16:56;;;;;;;11.33;10.93;;;4.90;99.90;;;;;;5089163;28;20222;-88
2024/01/01 05:19:30;;;;;;;11.20;10.80;;;4.90;99.90;;;;;;5098824;28;20278;-85
2024/01/01 05:22:02;;;;;;;11.40;11.00;;;4.80;99.90;;;;;;5092616;28;20225;-88
2024/01/01 05:24:36;;;;;;;11.30;10.90;;;4.80;99.90;;;;;;5093539;28;20222;-88
2024/01/01 05:27:07;;;;;;;11.37;10.97;;;4.80;99.90;;;;;;5087367;28;20230;-87
2024/01/01 05:29:47;;;;;;;;;;;;;;;;;;;;;
2024/01/01 05:32:17;;;;;;;11.13;10.73;;;4.70;99.90;;;;;;5085159;28;20265;-88
2024/01/01 05:34:51;;;;;;;11.40;11.00;;;4.60;99.90;;;;;;5087858;28;20369;-88
2024/01/01 05:37:19;;;;;;;11.37;10.97;;;4.60;99.90;;;;;;5088182;28;20230;-87
2024/01/01 05:39:51;;;;;;;11.33;10.93;;;4.50;99.90;;;;;;5087537;28;20237;-88
2024/01/01 05:42:19;;;;;;;11.17;10.77;;;4.50;99.90;;;;;;5087328;28;20288;-88
2024/01/01 05:45:01;;;;;;;11.43;11.03;;;4.50;99.90;;;;;;5090284;28;20236;-84
2024/01/01 05:47:33;;;;;;;11.17;10.77;;;4.50;99.90;;;;;;5097867;28;20233;-88
2024/01/01 05:50:10;;;;;;;11.10;10.70;;;4.50;99.90;;;;;;5088087;28;20284;-88
2024/01/01 05:52:41;;;;;;;11.40;11.00;;;4.50;99.90;;;;;;5087910;28;20241;-88
2024/01/01 05:55:13;;;;;;;11.10;10.70;;;4.50;99.90;;;;;;5087505;28;20234;-88
2024/01/01 05:57:49;;;;;;;11.10;10.70;;;4.50;99.90;;;;;;5086126;28;20242;-87
2024/01/01 06:00:29;;;;;;;11.37;10.97;;;4.50;99.90;;;;;;5112371;22;20256;-81
2024/01/01 06:03:04;;;;;;;11.20;10.80;;;4.50;99.90;;;;;;5073510;28;20274;-81
2024/01/01 06:05:56;;;;;;;11.53;11.13;;;4.50;99.90;;;;;;5084927;28;20316;-81
2024/01/01 06:08:36;;;;;;;11.40;11.00;;;4.50;99.90;;;;;;5078922;28;20246;-82
2024/01/01 06:11:16;;;;;;;11.43;11.03;;;4.50;99.90;;;;;;5084491;28;20241;-81
2024/01/01 06:13:59;;;;;;;11.40;11.00;;;4.50;99.90;;;;;;5084948;28;20236;-82
2024/01/01 06:16:46;;;;;;;11.30;10.90;;;4.60;99.90;;;;;;5084355;28;20230;-81
2024/01/01 06:19:18;;;;;;;11.40;11.00;;;4.50;99.90;;;;;;5084046;28;20230;-82
2024/01/01 06:22:04;;;;;;;11.53;11.13;;;4.60;99.90;;;;;;5090044;28;20257;-81
2024/01/01 06:24:56;;;;;;;;;;;;;;;;;;;;;
2024/01/01 06:27:30;;;;;;;11.63;11.23;;;4.50;99.90;;;;;;5078989;28;20256;-81
2024/01/01 06:30:14;;;;;;;11.50;11.10;;;4.50;99.90;;;;;;5085777;28;20244;-81
2024/01/01 06:32:46;;;;;;;11.50;11.10;;;4.60;99.90;;;;;;5085873;28;20226;-81
2024/01/01 06:35:16;;;;;;;11.37;10.97;;;4.50;99.90;;;;;;5084598;28;20226;-81
2024/01/01 06:37:54;;;;;;;11.27;10.87;;;4.50;99.90;;;;;;5085450;28;20262;-81
2024/01/01 06:40:38;;;;;;;11.47;11.07;;;4.60;99.90;;;;;;5084981;28;20237;-82
2024/01/01 06:43:26;;;;;;;11.80;11.40;;;4.60;99.90;;;;;;5084667;28;20226;-82
2024/01/01 06:46:05;;;;;;;11.60;11.20;;;4.50;99.90;;;;;;5085040;28;20237;-81
2024/01/01 06:48:38;;;;;;;11.50;11.10;;;4.50;99.90;;;;;;5085848;28;20230;-82
2024/01/01 06:51:35;;;;;;;;;;;;;;;;;;;;;
2024/01/01 06:54:24;;;;;;;11.40;11.00;;;4.50;99.90;;;;;;5085078;28;20226;-81
2024/01/01 06:57:04;;;;;;;11.90;11.50;;;4.50;99.90;;;;;;5084020;28;20214;-81
2024/01/01 06:59:45;;;;;;;11.10;10.70;;;4.50;99.90;;;;;;5082886;28;20328;-81
2024/01/01 07:02:19;;;;;;;10.97;10.60;;;4.50;99.90;;;;;;5083536;28;20232;-81
2024/01/01 07:04:52;;;;;;;11.30;10.90;;;4.50;99.90;;;;;;5083998;28;20237;-81
2024/01/01 07:07:32;;;;;;;11.27;10.87;;;4.50;99.90;;;;;;5084621;28;20222;-81
2024/01/01 07:10:11;;;;;;;11.10;10.70;;;4.50;99.90;;;;;;5084512;28;20241;-82
2024/01/01 07:12:49;;;;;;;10.97;10.60;;;4.50;99.90;;;;;;5084413;28;20275;-81
2024/01/01 07:15:21;;;;;;;10.90;10.60;;;4.50;99.90;;;;;;5086262;28;20238;-84
2024/01/01 07:17:56;;;;;;;10.80;10.50;;;4.60;99.90;;;;;;5088268;28;20238;-82
2024/01/01 07:20:34;;;;;;;11.00;10.70;;;4.60;99.90;;;;;;5087553;28;20297;-83
2024/01/01 07:23:10;;;;;;;11.00;10.70;;;4.60;99.90;;;;;;5085599;28;20265;-82
2024/01/01 07:25:45;;;;;;;10.97;10.67;;;4.70;99.90;;;;;;5088545;28;21150;-82
2024/01/01 07:28:15;;;;;;;10.73;10.43;;;4.70;99.90;;;;;;5087408;28;20226;-82
2024/01/01 07:30:58;;;;;;;10.67;10.37;;;4.80;99.90;;;;;;5087695;28;20230;-82
2024/01/01 07:33:50;;;;;;;10.60;10.30;;;4.80;99.90;;;;;;5087273;28;20240;-82
2024/01/01 07:36:22;;;;;;;10.90;10.60;;;4.80;99.90;;;;;;5079452;28;20228;-82
2024/01/01 07:38:50;;;;;;;10.83;10.53;;;4.80;99.90;;;;;;5092811;28;20206;-82
2024/01/01 07:41:28;;;;;;;10.90;10.60;;;4.80;99.90;;;;;;5097895;28;20234;-82
2024/01/01 07:44:05;;;;;;;11.03;10.70;;;4.80;99.90;;;;;;5100328;28;20230;-82
2024/01/01 07:46:35;;;;;;;10.50;10.20;;;4.80;99.90;;;;;;5093256;28;20222;-82
2024/01/01 07:49:06;;;;;;;10.80;10.50;;;4.80;99.90;;;;;;5090161;28;20214;-82
2024/01/01 07:51:36;;;;;;;10.60;10.30;;;4.90;99.90;;;;;;5089433;28;20241;-82
2024/01/01 07:54:24;;;;;;;10.63;10.33;;;4.90;99.90;;;;;;5088373;28;20226;-82
2024/01/01 07:57:09;;;;;;;10.70;10.40;;;4.90;99.90;;;;;;5087803;28;20248;-83
2024/01/01 07:59:47;;;;;;;10.63;10.33;;;5.00;99.90;;;;;;5086782;28;20222;-83
2024/01/01 08:02:18;;;;;;;10.70;10.40;;;5.00;99.90;;;;;;5080771;28;20234;-83
2024/01/01 08:04:49;;;;;;;10.60;10.30;;;5.10;99.90;;;;;;5087619;28;20225;-83
2024/01/01 08:07:16;;;;;;;10.60;10.30;;;5.10;99.90;;;;;;5079918;28;20222;-82
2024/01/01 08:09:53;;;;;;;10.53;10.23;;;5.10;99.90;;;;;;5087225;28;20236;-82
2024/01/01 08:12:29;;;;;;;10.50;10.20;;;5.10;99.90;;;;;;5087383;28;20222;-82
2024/01/01 08:15:00;;;;;;;10.70;10.40;;;5.10;99.90;;;;;;5088307;28;20312;-82
2024/01/01 08:17:32;;;;;;;10.60;10.30;;;5.10;99.90;;;;;;5087049;28;20276;-82
2024/01/01 08:20:04;;;;;;;10.27;9.97;;;5.20;99.90;;;;;;5086890;28;20237;-82
2024/01/01 08:22:48;;;;;;;10.70;10.40;;;5.30;99.90;;;;;;5086981;28;20234;-84
2024/01/01 08:25:20;;;;;;;10.67;10.37;;;5.30;99.90;;;;;;5087853;28;20240;-81
2024/01/01 08:27:53;;;;;;;10.57;10.27;;;5.40;99.90;;;;;;5086592;28;20286;-81
2024/01/01 08:30:26;;;;;;;10.33;10.03;;;5.40;99.90;;;;;;5086462;28;20288;-81
2024/01/01 08:33:00;;;;;;;10.67;10.37;;;5.50;99.90;;;;;;5087983;28;20226;-82
2024/01/01 08:39:15;;;;;;;;;;;;;;;;;;;;;
2024/01/01 08:42:06;;;;;;;10.23;9.93;;;5.60;99.90;;;;;;5058612;28;20219;-81
2024/01/01 08:44:56;;;;;;;10.50;10.20;;;5.70;99.90;;;;;;5068733;28;20302;-82
2024/01/01 08:47:40;;;;;;;10.40;10.10;;;5.80;99.90;;;;;;5067749;28;20227;-82
2024/01/01 08:50:31;;;;;;;10.40;10.10;;;5.80;99.90;;;;;;5065784;28;20226;-81
2024/01/01 08:53:01;;;;;;;10.60;10.30;;;5.90;99.90;;;;;;5058858;28;20254;-82
2024/01/01 08:55:45;;;;;;;10.27;9.97;;;6.00;99.90;;;;;;5065726;28;20254;-81
2024/01/01 08:58:24;;;;;;;10.30;10.00;;;6.00;99.90;;;;;;5065026;28;20298;-82
2024/01/01 09:01:07;;;;;;;10.20;9.90;;;6.10;99.90;;;;;;5065058;28;20230;-82
2024/01/01 09:03:40;;;;;;;10.50;10.20;;;6.20;99.90;;;;;;5085940;28;20214;-82
2024/01/01 09:06:11;;;;;;;10.00;9.70;;;6.20;99.90;;;;;;5085353;28;20222;-83
2024/01/01 09:08:43;;;;;;;10.00;9.70;;;6.20;99.90;;;;;;5085175;28;20230;-82
2024/01/01 09:11:10;;;;;;;10.20;9.90;;;6.30;99.90;;;;;;5085164;28;20240;-82
2024/01/01 09:13:41;;;;;;;10.40;10.10;;;6.40;99.90;;;;;;5084889;28;20215;-81
2024/01/01 09:16:10;;;;;;;10.03;9.73;;;6.50;99.90;;;;;;5086359;28;20237;-82
2024/01/01 09:18:40;;;;;;;10.00;9.70;;;6.60;99.90;;;;;;5086597;28;20289;-82
2024/01/01 09:21:17;;;;;;;10.40;10.10;;;6.60;99.90;;;;;;5081364;28;20258;-82
2024/01/01 09:23:51;;;;;;;9.90;9.60;;;6.80;99.90;;;;;;5073843;28;20226;-82
2024/01/01 09:26:20;;;;;;;9.90;9.60;;;6.80;99.90;;;;;;5077656;28;20225;-82
2024/01/01 09:28:53;;;;;;;9.83;9.53;;;7.00;99.90;;;;;;5084391;28;20233;-81
2024/01/01 09:31:32;;;;;;;10.00;9.70;;;7.00;99.90;;;;;;5084564;28;20299;-81
2024/01/01 09:34:08;;;;;;;10.00;9.70;;;7.00;99.90;;;;;;5085276;28;20280;-82
2024/01/01 09:36:37;;;;;;;10.40;10.10;;;7.10;99.90;;;;;;5083885;28;20429;-82
2024/01/01 09:39:04;;;;;;;10.20;9.90;;;7.20;99.90;;;;;;5083507;28;20265;-82
2024/01/01 09:41:32;;;;;;;10.17;9.87;;;7.20;99.90;;;;;;5084133;28;20249;-83
2024/01/01 09:44:01;;;;;;;9.83;9.53;;;7.30;99.90;;;;;;5085290;28;20219;-83
2024/01/01 09:46:54;;;;;;;9.93;9.63;;;7.30;99.90;;;;;;5084695;28;20234;-87
2024/01/01 09:49:26;;;;;;;10.00;9.70;;;7.40;99.90;;;;;;5083717;28;20333;-87
2024/01/01 09:51:57;;;;;;;10.03;9.73;;;7.50;99.90;;;;;;5084421;28;20234;-84
2024/01/01 09:54:24;;;;;;;9.70;9.40;;;7.50;99.90;;;;;;5085382;28;20203;-81
2024/01/01 09:56:53;;;;;;;10.00;9.70;;;7.50;99.90;;;;;;5084879;28;20236;-82
2024/01/01 09:59:35;;;;;;;9.90;9.60;;;7.40;99.90;;;;;;5089666;28;20234;-83
2024/01/01 10:02:09;;;;;;;9.87;9.57;;;7.50;99.90;;;;;;5085690;28;20256;-82
2024/01/01 10:04:37;;;;;;;10.00;9.70;;;7.60;99.90;;;;;;5085802;28;20296;-81
2024/01/01 10:07:05;;;;;;;9.80;9.50;;;7.60;99.90;;;;;;5085004;28;20308;-82
2024/01/01 10:09:32;;;;;;;9.73;9.43;;;7.60;99.90;;;;;;5084733;28;20234;-81
2024/01/01 10:12:10;;;;;;;9.70;9.40;;;7.60;99.90;;;;;;5085865;28;20288;-81
2024/01/01 10:14:58;;;;;;;9.80;9.50;;;7.60;99.90;;;;;;5084380;28;20313;-82
2024/01/01 10:17:28;;;;;;;9.80;9.50;;;7.80;99.90;;;;;;5083943;28;20272;-82
2024/01/01 10:19:59;;;;;;;9.83;9.53;;;7.90;99.90;;;;;;5083566;28;20296;-81
2024/01/01 10:22:31;;;;;;;9.90;9.60;;;8.00;99.90;;;;;;5084207;28;20230;-81
2024/01/01 10:25:12;;;;;;;10.10;9.80;;;8.00;99.90;;;;;;5083950;28;20225;-81
2024/01/01 10:27:41;;;;;;;10.00;9.70;;;8.10;99.90;;;;;;5084545;28;20237;-82
2024/01/01 10:30:10;;;;;;;10.13;9.83;;;8.10;99.90;;;;;;5084666;28;20245;-81
2024/01/01 10:32:40;;;;;;;10.20;9.90;;;8.00;99.90;;;;;;5086230;28;20284;-81
2024/01/01 10:35:11;;;;;;;10.20;9.90;;;8.00;99.90;;;;;;5086838;28;20229;-81
2024/01/01 10:37:42;;;;;;;10.40;10.10;;;8.10;99.90;;;;;;5086732;28;20328;-81
2024/01/01 10:40:14;;;;;;;10.10;9.80;;;8.30;99.90;;;;;;5085898;28;20237;-82
2024/01/01 10:42:46;;;;;;;10.10;9.80;;;8.30;99.90;;;;;;5085762;28;20289;-83
2024/01/01 10:45:16;;;;;;;10.00;9.70;;;8.40;99.90;;;;;;5085732;28;20222;-83
2024/01/01 10:47:55;;;;;;;9.80;9.50;;;8.60;99.90;;;;;;5084703;28;20317;-83
2024/01/01 10:50:30;;;;;;;9.90;9.60;;;8.70;99.90;;;;;;5086875;28;20225;-82
2024/01/01 10:54:11;;;;;;;10.10;9.80;;;8.70;99.90;;;;;;5087786;28;20233;-82
2024/01/01 10:57:41;;;;;;;10.40;10.10;;;8.70;99.90;;;;;;5087873;28;20226;-83
2024/01/01 11:00:34;;;;;;;10.10;9.80;;;8.60;99.90;;;;;;5067721;28;20226;-83
2024/01/01 11:04:25;;;;;;;;;;;;;;;;;;;;;
2024/01/01 11:07:58;;;;;;;10.17;9.87;;;8.50;99.90;;;;;;5068126;28;20240;-83
2024/01/01 11:14:31;;;;;;;10.30;10.00;;;8.50;99.90;;;;;;5084206;28;20268;-84
2024/01/01 11:17:07;;;;;;;10.23;9.93;;;8.60;99.90;;;;;;5087795;28;20232;-84
2024/01/01 11:20:37;;;;;;;10.13;9.83;;;8.50;99.90;;;;;;5086651;28;20234;-84
2024/01/01 11:41:13;;;;;;;;;;;;;;;;;;;;;
2024/01/01 11:43:51;;;;;;;10.77;10.48;;;8.50;99.90;;;;;;4991646;28;20393;-83
2024/01/01 11:46:30;;;;;;;10.30;10.00;;;8.50;99.90;;;;;;5088775;28;20221;-82
2024/01/01 11:49:03;;;;;;;10.17;9.87;;;8.60;99.90;;;;;;5086012;28;20252;-82
2024/01/01 11:51:49;;;;;;;10.30;10.00;;;8.60;99.90;;;;;;5089144;28;20234;-81
2024/01/01 11:54:18;;;;;;;10.20;9.90;;;8.60;99.90;;;;;;5097141;27;20253;-82
2024/01/01 11:56:48;;;;;;;10.30;10.00;;;8.50;99.90;;;;;;5101959;27;20238;-82
2024/01/01 11:59:25;;;;;;;10.30;10.00;;;8.50;99.90;;;;;;5101530;27;20278;-83
2024/01/01 12:16:52;;;;;;;9.93;9.63;;;8.30;99.90;;;;;;5047035;28;20218;-90
2024/01/01 12:19:25;;;;;;;9.90;9.60;;;8.30;99.90;;;;;;5050350;28;20238;-89
2024/01/01 12:21:56;;;;;;;10.00;9.70;;;8.30;99.90;;;;;;5096623;28;20214;-88
2024/01/01 12:24:26;;;;;;;10.40;10.10;;;8.30;99.90;;;;;;5096081;28;20226;-88
2024/01/01 12:27:12;;;;;;;10.17;9.87;;;8.30;99.90;;;;;;5087751;28;20229;-89
2024/01/01 12:30:07;;;;;;;10.07;9.77;;;8.30;99.90;;;;;;5085722;28;20241;-88
2024/01/01 12:33:32;;;;;;;;;;;;;;;;;;;;;
2024/01/01 12:36:52;;;;;;;10.10;9.80;;;8.30;99.90;;;;;;5085480;28;20309;-89
2024/01/01 12:40:08;;;;;;;10.20;9.90;;;8.30;99.90;;;;;;5029586;28;20262;-87
2024/01/01 12:43:07;;;;;;;10.10;9.80;;;8.40;99.90;;;;;;5022169;28;20236;-87
2024/01/01 12:46:15;;;;;;;10.10;9.80;;;8.40;99.90;;;;;;5087610;28;20225;-88
2024/01/01 17:58:17;;;;;;;10.00;9.70;;;7.20;99.90;;;;;;5780289;23;20241;-86
2024/01/01 18:00:50;;;;;;;10.00;9.70;;;7.20;99.90;;;;;;4988252;28;20261;-87
2024/01/01 18:03:23;;;;;;;9.60;9.30;;;7.30;99.90;;;;;;4995063;28;20245;-86
2024/01/01 18:09:13;;;;;;;9.90;9.60;;;7.40;99.90;;;;;;4952174;28;20250;-90
2024/01/01 18:23:36;;;;;;;9.40;9.10;;;7.00;99.90;;;;;;4910654;28;20243;-89
2024/01/01 18:30:29;;;;;;;9.73;9.43;;;7.00;99.90;;;;;;5221720;23;20379;-90
2024/01/01 18:36:59;;;;;;;9.97;9.67;;;7.00;99.90;;;;;;4982694;28;20237;-91
2024/01/01 18:42:52;;;;;;;9.80;9.50;;;6.80;99.90;;;;;;4973975;28;20225;-91
2024/01/01 18:45:43;;;;;;;10.00;9.70;;;6.80;99.90;;;;;;4969129;28;20237;-91
2024/01/01 18:55:32;;;;;;;9.80;9.50;;;6.60;99.90;;;;;;4913847;28;20295;-89
2024/01/01 19:06:03;;;;;;;;;;;;;;;;;;;;;
2024/01/01 19:09:57;;;;;;;9.77;9.47;;;6.60;99.90;;;;;;5004854;28;20224;-90
2024/01/01 20:48:51;;;;;;;9.87;9.57;;;5.90;99.90;;;;;;4868519;28;20277;-88
